sensor_id;sensor_type;location;lat;lon;timestamp;pressure;altitude;pressure_sealevel;temperature;humidity
60015;BME280;45867;52.480;6.056;2022-10-22T00:01:17;100923.78;;;11.92;100.00
60015;BME280;45867;52.480;6.056;2022-10-22T00:03:49;100932.28;;;11.89;100.00
60015;BME280;45867;52.480;6.056;2022-10-22T00:06:15;100916.66;;;11.72;100.00
60015;BME280;45867;52.480;6.056;2022-10-22T00:08:41;100927.81;;;11.69;100.00
60015;BME280;45867;52.480;6.056;2022-10-22T00:11:13;100933.16;;;11.59;100.00
60015;BME280;45867;52.480;6.056;2022-10-22T00:13:59;100939.03;;;11.46;100.00
60015;BME280;45867;52.480;6.056;2022-10-22T00:16:26;100933.22;;;11.39;100.00
60015;BME280;45867;52.480;6.056;2022-10-22T00:18:52;100931.34;;;11.24;100.00
60015;BME280;45867;52.480;6.056;2022-10-22T00:21:19;100923.44;;;11.08;100.00
60015;BME280;45867;52.480;6.056;2022-10-22T00:23:45;100925.56;;;11.06;100.00
60015;BME280;45867;52.480;6.056;2022-10-22T00:26:11;100943.59;;;11.04;100.00
60015;BME280;45867;52.480;6.056;2022-10-22T00:28:41;100938.00;;;10.96;100.00
60015;BME280;45867;52.480;6.056;2022-10-22T00:31:07;100946.50;;;10.93;100.00
60015;BME280;45867;52.480;6.056;2022-10-22T00:33:33;100945.97;;;10.91;100.00
60015;BME280;45867;52.480;6.056;2022-10-22T00:35:59;100951.00;;;10.82;100.00
60015;BME280;45867;52.480;6.056;2022-10-22T00:38:26;100953.94;;;10.75;100.00
60015;BME280;45867;52.480;6.056;2022-10-22T00:40:54;100955.25;;;10.73;100.00
60015;BME280;45867;52.480;6.056;2022-10-22T00:43:20;100954.44;;;10.77;100.00
60015;BME280;45867;52.480;6.056;2022-10-22T00:45:46;100944.09;;;10.71;100.00
60015;BME280;45867;52.480;6.056;2022-10-22T00:48:26;100944.94;;;10.92;100.00
60015;BME280;45867;52.480;6.056;2022-10-22T00:51:02;100953.66;;;11.13;100.00
60015;BME280;45867;52.480;6.056;2022-10-22T00:53:33;100952.63;;;11.14;100.00
60015;BME280;45867;52.480;6.056;2022-10-22T00:55:59;100959.50;;;11.20;100.00
60015;BME280;45867;52.480;6.056;2022-10-22T00:58:30;100957.09;;;11.23;100.00
60015;BME280;45867;52.480;6.056;2022-10-22T01:00:58;100955.25;;;11.19;100.00
60015;BME280;45867;52.480;6.056;2022-10-22T01:03:24;100948.63;;;11.11;100.00
60015;BME280;45867;52.480;6.056;2022-10-22T01:05:56;100960.56;;;11.14;100.00
60015;BME280;45867;52.480;6.056;2022-10-22T01:08:50;100965.88;;;11.08;100.00
60015;BME280;45867;52.480;6.056;2022-10-22T01:11:22;100970.63;;;11.06;100.00
60015;BME280;45867;52.480;6.056;2022-10-22T01:14:13;100973.53;;;11.10;100.00
60015;BME280;45867;52.480;6.056;2022-10-22T01:22:21;100960.28;;;11.25;100.00
60015;BME280;45867;52.480;6.056;2022-10-22T01:27:34;100947.25;;;11.44;100.00
60015;BME280;45867;52.480;6.056;2022-10-22T01:30:07;100965.28;;;11.47;100.00
60015;BME280;45867;52.480;6.056;2022-10-22T01:32:46;100958.41;;;11.46;100.00
60015;BME280;45867;52.480;6.056;2022-10-22T01:35:15;100954.16;;;11.45;100.00
60015;BME280;45867;52.480;6.056;2022-10-22T01:37:49;100962.34;;;11.59;100.00
60015;BME280;45867;52.480;6.056;2022-10-22T01:40:18;100943.25;;;11.52;100.00
60015;BME280;45867;52.480;6.056;2022-10-22T01:43:02;100947.19;;;11.65;100.00
60015;BME280;45867;52.480;6.056;2022-10-22T01:45:30;100950.66;;;11.70;100.00
60015;BME280;45867;52.480;6.056;2022-10-22T01:48:07;100950.13;;;11.73;100.00
60015;BME280;45867;52.480;6.056;2022-10-22T01:53:48;100944.28;;;11.71;100.00
60015;BME280;45867;52.480;6.056;2022-10-22T02:04:51;100944.31;;;11.56;100.00
60015;BME280;45867;52.480;6.056;2022-10-22T02:07:21;100948.81;;;11.55;100.00
60015;BME280;45867;52.480;6.056;2022-10-22T02:09:49;100954.38;;;11.64;100.00
60015;BME280;45867;52.480;6.056;2022-10-22T02:12:18;100952.25;;;11.66;100.00
60015;BME280;45867;52.480;6.056;2022-10-22T02:14:49;100955.69;;;11.67;100.00
60015;BME280;45867;52.480;6.056;2022-10-22T02:17:19;100955.44;;;11.73;100.00
60015;BME280;45867;52.480;6.056;2022-10-22T02:19:50;100957.00;;;11.69;100.00
60015;BME280;45867;52.480;6.056;2022-10-22T02:22:17;100957.53;;;11.71;100.00
60015;BME280;45867;52.480;6.056;2022-10-22T02:24:43;100952.00;;;11.68;100.00
60015;BME280;45867;52.480;6.056;2022-10-22T02:27:35;100952.50;;;11.70;100.00
60015;BME280;45867;52.480;6.056;2022-10-22T02:30:08;100946.63;;;11.73;100.00
60015;BME280;45867;52.480;6.056;2022-10-22T02:33:06;100946.41;;;11.64;100.00
60015;BME280;45867;52.480;6.056;2022-10-22T02:35:33;100936.63;;;11.54;100.00
60015;BME280;45867;52.480;6.056;2022-10-22T02:38:00;100946.47;;;11.49;100.00
60015;BME280;45867;52.480;6.056;2022-10-22T02:40:26;100930.03;;;11.37;100.00
60015;BME280;45867;52.480;6.056;2022-10-22T02:42:54;100934.28;;;11.32;100.00
60015;BME280;45867;52.480;6.056;2022-10-22T02:45:20;100944.38;;;11.30;100.00
60015;BME280;45867;52.480;6.056;2022-10-22T02:47:46;100950.22;;;11.32;100.00
60015;BME280;45867;52.480;6.056;2022-10-22T02:50:11;100951.25;;;11.26;100.00
60015;BME280;45867;52.480;6.056;2022-10-22T02:52:37;100950.22;;;11.27;100.00
60015;BME280;45867;52.480;6.056;2022-10-22T02:55:03;100948.34;;;11.23;100.00
60015;BME280;45867;52.480;6.056;2022-10-22T02:57:29;100950.75;;;11.19;100.00
60015;BME280;45867;52.480;6.056;2022-10-22T02:59:54;100952.88;;;11.17;100.00
60015;BME280;45867;52.480;6.056;2022-10-22T03:02:20;100952.06;;;11.17;100.00
60015;BME280;45867;52.480;6.056;2022-10-22T03:04:45;100954.72;;;11.17;100.00
60015;BME280;45867;52.480;6.056;2022-10-22T03:07:10;100953.16;;;11.10;100.00
60015;BME280;45867;52.480;6.056;2022-10-22T03:09:36;100937.47;;;11.04;100.00
60015;BME280;45867;52.480;6.056;2022-10-22T03:12:01;100945.44;;;11.04;100.00
60015;BME280;45867;52.480;6.056;2022-10-22T03:14:43;100947.56;;;11.02;100.00
60015;BME280;45867;52.480;6.056;2022-10-22T03:17:08;100960.03;;;11.06;100.00
60015;BME280;45867;52.480;6.056;2022-10-22T03:19:33;100953.16;;;11.05;100.00
60015;BME280;45867;52.480;6.056;2022-10-22T03:22:05;100952.34;;;11.05;100.00
60015;BME280;45867;52.480;6.056;2022-10-22T03:24:38;100957.91;;;11.03;100.00
60015;BME280;45867;52.480;6.056;2022-10-22T03:27:04;100952.06;;;11.01;100.00
60015;BME280;45867;52.480;6.056;2022-10-22T03:29:30;100960.81;;;11.02;100.00
60015;BME280;45867;52.480;6.056;2022-10-22T03:31:58;100956.59;;;11.01;100.00
60015;BME280;45867;52.480;6.056;2022-10-22T03:34:23;100952.59;;;11.03;100.00
60015;BME280;45867;52.480;6.056;2022-10-22T03:36:50;100956.06;;;11.04;100.00
60015;BME280;45867;52.480;6.056;2022-10-22T03:39:16;100963.22;;;11.03;100.00
60015;BME280;45867;52.480;6.056;2022-10-22T03:41:44;100965.88;;;11.08;100.00
60015;BME280;45867;52.480;6.056;2022-10-22T03:44:10;100968.00;;;11.11;100.00
60015;BME280;45867;52.480;6.056;2022-10-22T03:46:36;100967.44;;;11.15;100.00
60015;BME280;45867;52.480;6.056;2022-10-22T03:49:01;100959.78;;;11.08;100.00
60015;BME280;45867;52.480;6.056;2022-10-22T03:51:27;100956.84;;;11.09;100.00
60015;BME280;45867;52.480;6.056;2022-10-22T03:53:53;100953.94;;;11.11;100.00
60015;BME280;45867;52.480;6.056;2022-10-22T03:56:18;100965.34;;;11.17;100.00
60015;BME280;45867;52.480;6.056;2022-10-22T03:58:43;100977.00;;;11.16;100.00
60015;BME280;45867;52.480;6.056;2022-10-22T04:01:11;100973.81;;;11.24;100.00
60015;BME280;45867;52.480;6.056;2022-10-22T04:03:38;100971.44;;;11.22;100.00
60015;BME280;45867;52.480;6.056;2022-10-22T04:06:06;100977.78;;;11.31;100.00
60015;BME280;45867;52.480;6.056;2022-10-22T04:08:33;100974.63;;;11.24;100.00
60015;BME280;45867;52.480;6.056;2022-10-22T04:10:59;100978.06;;;11.20;100.00
60015;BME280;45867;52.480;6.056;2022-10-22T04:13:43;100971.44;;;11.22;100.00
60015;BME280;45867;52.480;6.056;2022-10-22T04:16:19;100979.09;;;11.24;100.00
60015;BME280;45867;52.480;6.056;2022-10-22T04:18:46;100986.53;;;11.32;100.00
60015;BME280;45867;52.480;6.056;2022-10-22T04:21:14;100971.44;;;11.27;100.00
60015;BME280;45867;52.480;6.056;2022-10-22T04:23:45;100978.31;;;11.33;100.00
60015;BME280;45867;52.480;6.056;2022-10-22T04:26:10;100977.78;;;11.31;100.00
60015;BME280;45867;52.480;6.056;2022-10-22T04:28:35;100977.78;;;11.37;100.00
60015;BME280;45867;52.480;6.056;2022-10-22T04:31:07;100978.84;;;11.41;100.00
60015;BME280;45867;52.480;6.056;2022-10-22T04:33:33;100984.94;;;11.36;100.00
60015;BME280;45867;52.480;6.056;2022-10-22T04:35:58;100986.81;;;11.41;100.00
60015;BME280;45867;52.480;6.056;2022-10-22T04:38:24;100986.28;;;11.44;100.00
60015;BME280;45867;52.480;6.056;2022-10-22T04:40:49;100984.41;;;11.44;100.00
60015;BME280;45867;52.480;6.056;2022-10-22T04:43:15;100979.09;;;11.44;100.00
60015;BME280;45867;52.480;6.056;2022-10-22T04:45:40;100982.28;;;11.46;100.00
60015;BME280;45867;52.480;6.056;2022-10-22T04:48:06;100986.00;;;11.45;100.00
60015;BME280;45867;52.480;6.056;2022-10-22T04:50:31;100979.91;;;11.45;100.00
60015;BME280;45867;52.480;6.056;2022-10-22T04:53:02;100985.72;;;11.47;100.00
60015;BME280;45867;52.480;6.056;2022-10-22T04:55:28;100988.63;;;11.45;100.00
60015;BME280;45867;52.480;6.056;2022-10-22T04:57:53;100989.72;;;11.44;100.00
60015;BME280;45867;52.480;6.056;2022-10-22T05:00:18;100983.63;;;11.44;100.00
60015;BME280;45867;52.480;6.056;2022-10-22T05:02:48;100982.78;;;11.48;100.00
60015;BME280;45867;52.480;6.056;2022-10-22T05:05:14;100988.09;;;11.48;100.00
60015;BME280;45867;52.480;6.056;2022-10-22T05:07:39;100983.88;;;11.42;100.00
60015;BME280;45867;52.480;6.056;2022-10-22T05:10:05;100992.63;;;11.53;100.00
60015;BME280;45867;52.480;6.056;2022-10-22T05:12:30;100997.13;;;11.52;100.00
60015;BME280;45867;52.480;6.056;2022-10-22T05:14:56;100993.44;;;11.43;100.00
60015;BME280;45867;52.480;6.056;2022-10-22T05:17:21;100978.56;;;11.37;100.00
60015;BME280;45867;52.480;6.056;2022-10-22T05:19:46;100992.91;;;11.46;100.00
60015;BME280;45867;52.480;6.056;2022-10-22T05:22:12;100989.47;;;11.41;100.00
60015;BME280;45867;52.480;6.056;2022-10-22T05:24:37;100994.78;;;11.41;100.00
60015;BME280;45867;52.480;6.056;2022-10-22T05:27:03;100994.78;;;11.46;100.00
60015;BME280;45867;52.480;6.056;2022-10-22T05:29:28;100997.69;;;11.49;100.00
60015;BME280;45867;52.480;6.056;2022-10-22T05:31:54;100984.94;;;11.41;100.00
60015;BME280;45867;52.480;6.056;2022-10-22T05:34:19;100984.69;;;11.38;100.00
60015;BME280;45867;52.480;6.056;2022-10-22T05:36:45;100996.06;;;11.48;100.00
60015;BME280;45867;52.480;6.056;2022-10-22T05:39:10;100989.97;;;11.48;100.00
60015;BME280;45867;52.480;6.056;2022-10-22T05:41:36;100998.47;;;11.45;100.00
60015;BME280;45867;52.480;6.056;2022-10-22T05:44:03;100998.47;;;11.50;100.00
60015;BME280;45867;52.480;6.056;2022-10-22T05:46:32;101003.75;;;11.55;100.00
60015;BME280;45867;52.480;6.056;2022-10-22T05:49:00;100990.50;;;11.50;100.00
60015;BME280;45867;52.480;6.056;2022-10-22T05:51:27;101001.38;;;11.53;100.00
60015;BME280;45867;52.480;6.056;2022-10-22T05:53:57;101004.56;;;11.55;100.00
60015;BME280;45867;52.480;6.056;2022-10-22T05:56:24;101014.38;;;11.60;100.00
60015;BME280;45867;52.480;6.056;2022-10-22T05:58:50;101015.16;;;11.61;100.00
60015;BME280;45867;52.480;6.056;2022-10-22T06:01:22;101013.59;;;11.60;100.00
60015;BME280;45867;52.480;6.056;2022-10-22T06:03:48;101023.13;;;11.61;100.00
60015;BME280;45867;52.480;6.056;2022-10-22T06:06:25;101018.63;;;11.56;100.00
60015;BME280;45867;52.480;6.056;2022-10-22T06:08:52;101026.56;;;11.61;100.00
60015;BME280;45867;52.480;6.056;2022-10-22T06:11:22;101013.31;;;11.56;100.00
60015;BME280;45867;52.480;6.056;2022-10-22T06:13:58;101022.06;;;11.67;100.00
60015;BME280;45867;52.480;6.056;2022-10-22T06:16:24;101032.41;;;11.68;100.00
60015;BME280;45867;52.480;6.056;2022-10-22T06:18:49;101025.50;;;11.67;100.00
60015;BME280;45867;52.480;6.056;2022-10-22T06:21:15;101038.75;;;11.77;100.00
60015;BME280;45867;52.480;6.056;2022-10-22T06:23:42;101018.31;;;11.73;100.00
60015;BME280;45867;52.480;6.056;2022-10-22T06:26:07;101023.13;;;11.76;100.00
60015;BME280;45867;52.480;6.056;2022-10-22T06:28:34;101044.06;;;11.83;100.00
60015;BME280;45867;52.480;6.056;2022-10-22T06:31:00;101049.91;;;11.80;100.00
60015;BME280;45867;52.480;6.056;2022-10-22T06:33:28;101035.84;;;11.74;100.00
60015;BME280;45867;52.480;6.056;2022-10-22T06:35:54;101053.91;;;11.82;100.00
60015;BME280;45867;52.480;6.056;2022-10-22T06:38:20;101044.88;;;11.73;100.00
60015;BME280;45867;52.480;6.056;2022-10-22T06:40:45;101050.19;;;11.73;100.00
60015;BME280;45867;52.480;6.056;2022-10-22T06:43:12;101045.16;;;11.71;100.00
60015;BME280;45867;52.480;6.056;2022-10-22T06:45:38;101051.25;;;11.72;100.00
60015;BME280;45867;52.480;6.056;2022-10-22T06:48:04;101051.00;;;11.73;100.00
60015;BME280;45867;52.480;6.056;2022-10-22T06:50:30;101061.63;;;11.73;100.00
60015;BME280;45867;52.480;6.056;2022-10-22T06:52:56;101067.72;;;11.74;100.00
60015;BME280;45867;52.480;6.056;2022-10-22T06:55:22;101063.44;;;11.73;100.00
60015;BME280;45867;52.480;6.056;2022-10-22T06:57:47;101065.31;;;11.67;100.00
60015;BME280;45867;52.480;6.056;2022-10-22T07:00:13;101072.78;;;11.70;100.00
60015;BME280;45867;52.480;6.056;2022-10-22T07:02:38;101082.03;;;11.73;100.00
60015;BME280;45867;52.480;6.056;2022-10-22T07:05:04;101079.66;;;11.66;100.00
60015;BME280;45867;52.480;6.056;2022-10-22T07:07:29;101097.72;;;11.80;100.00
60015;BME280;45867;52.480;6.056;2022-10-22T07:09:56;101097.97;;;11.83;100.00
60015;BME280;45867;52.480;6.056;2022-10-22T07:12:24;101096.91;;;11.84;100.00
60015;BME280;45867;52.480;6.056;2022-10-22T07:14:51;101099.31;;;11.86;100.00
60015;BME280;45867;52.480;6.056;2022-10-22T07:17:30;101104.34;;;11.97;100.00
60015;BME280;45867;52.480;6.056;2022-10-22T07:19:55;101106.19;;;11.97;100.00
60015;BME280;45867;52.480;6.056;2022-10-22T07:22:24;101106.50;;;12.01;100.00
60015;BME280;45867;52.480;6.056;2022-10-22T07:24:49;101118.41;;;12.08;100.00
60015;BME280;45867;52.480;6.056;2022-10-22T07:27:16;101123.72;;;12.13;100.00
60015;BME280;45867;52.480;6.056;2022-10-22T07:30:14;101126.59;;;12.22;100.00
60015;BME280;45867;52.480;6.056;2022-10-22T07:32:39;101126.59;;;12.27;100.00
60015;BME280;45867;52.480;6.056;2022-10-22T07:35:11;101132.19;;;12.26;100.00
60015;BME280;45867;52.480;6.056;2022-10-22T07:37:36;101131.91;;;12.32;100.00
60015;BME280;45867;52.480;6.056;2022-10-22T07:40:02;101130.56;;;12.35;100.00
60015;BME280;45867;52.480;6.056;2022-10-22T07:42:42;101133.19;;;12.45;100.00
60015;BME280;45867;52.480;6.056;2022-10-22T07:45:07;101142.19;;;12.54;100.00
60015;BME280;45867;52.480;6.056;2022-10-22T07:47:33;101133.94;;;12.66;100.00
60015;BME280;45867;52.480;6.056;2022-10-22T07:49:58;101139.47;;;12.75;100.00
60015;BME280;45867;52.480;6.056;2022-10-22T07:52:24;101138.69;;;12.74;100.00
60015;BME280;45867;52.480;6.056;2022-10-22T07:54:49;101144.78;;;12.80;100.00
60015;BME280;45867;52.480;6.056;2022-10-22T07:57:14;101127.50;;;12.77;100.00
60015;BME280;45867;52.480;6.056;2022-10-22T07:59:40;101134.34;;;12.94;100.00
60015;BME280;45867;52.480;6.056;2022-10-22T08:02:05;101140.97;;;13.01;100.00
60015;BME280;45867;52.480;6.056;2022-10-22T08:04:31;101143.53;;;13.11;100.00
60015;BME280;45867;52.480;6.056;2022-10-22T08:06:56;101145.84;;;13.28;100.00
60015;BME280;45867;52.480;6.056;2022-10-22T08:09:21;101142.38;;;13.33;100.00
60015;BME280;45867;52.480;6.056;2022-10-22T08:11:47;101156.94;;;13.46;100.00
60015;BME280;45867;52.480;6.056;2022-10-22T08:14:31;101155.78;;;13.57;100.00
60015;BME280;45867;52.480;6.056;2022-10-22T08:17:06;101157.84;;;13.65;100.00
60015;BME280;45867;52.480;6.056;2022-10-22T08:19:32;101158.75;;;13.85;100.00
60015;BME280;45867;52.480;6.056;2022-10-22T08:21:59;101152.31;;;13.91;100.00
60015;BME280;45867;52.480;6.056;2022-10-22T08:24:24;101154.91;;;14.01;100.00
60015;BME280;45867;52.480;6.056;2022-10-22T08:26:52;101163.53;;;14.17;100.00
60015;BME280;45867;52.480;6.056;2022-10-22T08:29:18;101157.06;;;14.23;100.00
60015;BME280;45867;52.480;6.056;2022-10-22T08:31:45;101158.69;;;14.24;100.00
60015;BME280;45867;52.480;6.056;2022-10-22T08:34:11;101158.69;;;14.24;100.00
60015;BME280;45867;52.480;6.056;2022-10-22T08:36:36;101147.44;;;14.27;100.00
60015;BME280;45867;52.480;6.056;2022-10-22T08:39:01;101166.34;;;14.31;100.00
60015;BME280;45867;52.480;6.056;2022-10-22T08:41:27;101169.69;;;14.41;100.00
60015;BME280;45867;52.480;6.056;2022-10-22T08:44:08;101171.22;;;14.48;100.00
60015;BME280;45867;52.480;6.056;2022-10-22T08:49:25;101174.31;;;14.60;100.00
60015;BME280;45867;52.480;6.056;2022-10-22T08:51:52;101175.63;;;14.62;100.00
60015;BME280;45867;52.480;6.056;2022-10-22T08:54:26;101180.59;;;14.69;100.00
60015;BME280;45867;52.480;6.056;2022-10-22T08:59:36;101188.72;;;14.83;100.00
60015;BME280;45867;52.480;6.056;2022-10-22T09:02:18;101204.09;;;14.91;100.00
60015;BME280;45867;52.480;6.056;2022-10-22T09:04:55;101199.84;;;14.90;100.00
60015;BME280;45867;52.480;6.056;2022-10-22T09:07:26;101204.88;;;14.92;100.00
60015;BME280;45867;52.480;6.056;2022-10-22T09:09:53;101209.00;;;15.03;100.00
60015;BME280;45867;52.480;6.056;2022-10-22T09:12:22;101192.16;;;14.83;100.00
60015;BME280;45867;52.480;6.056;2022-10-22T09:14:49;101193.78;;;14.84;100.00
60015;BME280;45867;52.480;6.056;2022-10-22T09:20:05;101219.22;;;15.20;100.00
60015;BME280;45867;52.480;6.056;2022-10-22T09:23:03;101218.28;;;15.29;100.00
60015;BME280;45867;52.480;6.056;2022-10-22T09:25:35;101203.22;;;15.39;100.00
60015;BME280;45867;52.480;6.056;2022-10-22T09:28:01;101206.22;;;15.51;100.00
60015;BME280;45867;52.480;6.056;2022-10-22T09:30:30;101219.81;;;16.06;100.00
60015;BME280;45867;52.480;6.056;2022-10-22T09:35:33;101212.22;;;15.81;100.00
60015;BME280;45867;52.480;6.056;2022-10-22T09:38:06;101220.38;;;15.51;100.00
60015;BME280;45867;52.480;6.056;2022-10-22T09:40:41;101236.75;;;15.26;100.00
60015;BME280;45867;52.480;6.056;2022-10-22T09:43:10;101235.88;;;15.12;100.00
60015;BME280;45867;52.480;6.056;2022-10-22T09:45:36;101250.69;;;15.23;100.00
60015;BME280;45867;52.480;6.056;2022-10-22T09:50:46;101244.03;;;15.20;100.00
60015;BME280;45867;52.480;6.056;2022-10-22T09:53:25;101248.28;;;15.21;100.00
60015;BME280;45867;52.480;6.056;2022-10-22T09:55:53;101251.03;;;15.35;100.00
60015;BME280;45867;52.480;6.056;2022-10-22T09:58:20;101253.31;;;15.47;100.00
60015;BME280;45867;52.480;6.056;2022-10-22T10:00:51;101254.69;;;15.44;100.00
60015;BME280;45867;52.480;6.056;2022-10-22T10:03:22;101260.50;;;15.46;100.00
60015;BME280;45867;52.480;6.056;2022-10-22T10:05:52;101264.28;;;15.45;100.00
60015;BME280;45867;52.480;6.056;2022-10-22T10:08:18;101268.09;;;15.58;100.00
60015;BME280;45867;52.480;6.056;2022-10-22T10:10:50;101270.50;;;15.79;100.00
60015;BME280;45867;52.480;6.056;2022-10-22T10:19:12;101271.47;;;15.88;100.00
60015;BME280;45867;52.480;6.056;2022-10-22T10:21:54;101281.34;;;15.68;100.00
60015;BME280;45867;52.480;6.056;2022-10-22T10:27:49;101283.41;;;15.52;100.00
60015;BME280;45867;52.480;6.056;2022-10-22T10:30:15;101293.16;;;15.62;100.00
60015;BME280;45867;52.480;6.056;2022-10-22T10:46:34;101306.50;;;15.62;100.00
60015;BME280;45867;52.480;6.056;2022-10-22T10:49:29;101308.06;;;15.68;100.00
60015;BME280;45867;52.480;6.056;2022-10-22T10:52:15;101303.69;;;15.53;100.00
60015;BME280;45867;52.480;6.056;2022-10-22T10:57:59;101301.34;;;15.71;100.00
60015;BME280;45867;52.480;6.056;2022-10-22T11:00:31;101307.19;;;15.92;100.00
60015;BME280;45867;52.480;6.056;2022-10-22T11:03:33;101299.47;;;17.16;100.00
60015;BME280;45867;52.480;6.056;2022-10-22T11:06:22;101284.81;;;19.94;100.00
60015;BME280;45867;52.480;6.056;2022-10-22T11:11:51;101277.28;;;20.44;100.00
60015;BME280;45867;52.480;6.056;2022-10-22T11:15:10;101274.22;;;21.52;100.00
60015;BME280;45867;52.480;6.056;2022-10-22T11:18:26;101279.19;;;22.16;100.00
60015;BME280;45867;52.480;6.056;2022-10-22T11:23:41;101293.06;;;22.97;100.00
60015;BME280;45867;52.480;6.056;2022-10-22T11:26:43;101283.00;;;22.15;100.00
60015;BME280;45867;52.480;6.056;2022-10-22T11:29:12;101286.53;;;21.61;100.00
60015;BME280;45867;52.480;6.056;2022-10-22T11:31:40;101283.84;;;22.28;100.00
60015;BME280;45867;52.480;6.056;2022-10-22T11:34:14;101290.59;;;21.88;100.00
60015;BME280;45867;52.480;6.056;2022-10-22T11:36:42;101289.19;;;21.82;100.00
60015;BME280;45867;52.480;6.056;2022-10-22T11:39:46;101292.56;;;20.69;100.00
60015;BME280;45867;52.480;6.056;2022-10-22T11:42:38;101291.59;;;19.40;100.00
60015;BME280;45867;52.480;6.056;2022-10-22T11:50:43;101306.09;;;18.05;100.00
60015;BME280;45867;52.480;6.056;2022-10-22T12:06:16;101308.91;;;17.64;100.00
60015;BME280;45867;52.480;6.056;2022-10-22T12:09:05;101303.00;;;18.34;100.00
60015;BME280;45867;52.480;6.056;2022-10-22T12:11:36;101301.13;;;20.71;100.00
60015;BME280;45867;52.480;6.056;2022-10-22T12:14:24;101279.81;;;22.01;100.00
60015;BME280;45867;52.480;6.056;2022-10-22T12:16:58;101300.09;;;22.40;100.00
60015;BME280;45867;52.480;6.056;2022-10-22T12:19:33;101293.28;;;23.97;100.00
60015;BME280;45867;52.480;6.056;2022-10-22T12:22:10;101292.16;;;24.14;100.00
60015;BME280;45867;52.480;6.056;2022-10-22T12:24:40;101285.47;;;22.08;100.00
60015;BME280;45867;52.480;6.056;2022-10-22T12:27:55;101291.28;;;20.11;100.00
60015;BME280;45867;52.480;6.056;2022-10-22T12:30:19;101289.56;;;19.80;100.00
60015;BME280;45867;52.480;6.056;2022-10-22T12:32:46;101296.19;;;19.57;100.00
60015;BME280;45867;52.480;6.056;2022-10-22T12:35:17;101303.00;;;19.98;100.00
60015;BME280;45867;52.480;6.056;2022-10-22T12:37:43;101308.22;;;20.11;100.00
60015;BME280;45867;52.480;6.056;2022-10-22T12:42:53;101309.41;;;18.78;100.00
60015;BME280;45867;52.480;6.056;2022-10-22T12:45:19;101300.31;;;18.34;100.00
60015;BME280;45867;52.480;6.056;2022-10-22T12:47:46;101311.88;;;18.44;100.00
60015;BME280;45867;52.480;6.056;2022-10-22T12:50:21;101306.44;;;19.55;100.00
60015;BME280;45867;52.480;6.056;2022-10-22T12:52:48;101298.53;;;20.28;100.00
60015;BME280;45867;52.480;6.056;2022-10-22T12:55:18;101297.41;;;19.24;100.00
60015;BME280;45867;52.480;6.056;2022-10-22T12:57:47;101299.66;;;18.60;100.00
60015;BME280;45867;52.480;6.056;2022-10-22T13:00:24;101305.72;;;18.43;100.00
60015;BME280;45867;52.480;6.056;2022-10-22T13:02:50;101302.75;;;18.45;100.00
60015;BME280;45867;52.480;6.056;2022-10-22T13:05:21;101310.13;;;18.39;100.00
60015;BME280;45867;52.480;6.056;2022-10-22T13:08:01;101314.03;;;18.10;100.00
60015;BME280;45867;52.480;6.056;2022-10-22T13:10:35;101313.63;;;18.17;100.00
60015;BME280;45867;52.480;6.056;2022-10-22T13:13:01;101300.81;;;17.78;100.00
60015;BME280;45867;52.480;6.056;2022-10-22T13:23:28;101325.72;;;17.42;100.00
60015;BME280;45867;52.480;6.056;2022-10-22T13:26:11;101336.34;;;17.47;100.00
60015;BME280;45867;52.480;6.056;2022-10-22T13:28:37;101328.66;;;17.54;100.00
60015;BME280;45867;52.480;6.056;2022-10-22T13:31:24;101333.47;;;18.38;100.00
60015;BME280;45867;52.480;6.056;2022-10-22T13:33:54;101330.50;;;19.51;100.00
60015;BME280;45867;52.480;6.056;2022-10-22T13:36:20;101334.75;;;18.95;100.00
60015;BME280;45867;52.480;6.056;2022-10-22T13:38:46;101342.44;;;18.56;100.00
60015;BME280;45867;52.480;6.056;2022-10-22T13:41:26;101338.31;;;18.81;100.00
60015;BME280;45867;52.480;6.056;2022-10-22T13:43:52;101346.53;;;19.25;100.00
60015;BME280;45867;52.480;6.056;2022-10-22T13:46:19;101350.00;;;19.17;100.00
60015;BME280;45867;52.480;6.056;2022-10-22T13:48:46;101340.84;;;18.78;100.00
60015;BME280;45867;52.480;6.056;2022-10-22T13:51:15;101344.75;;;19.12;100.00
60015;BME280;45867;52.480;6.056;2022-10-22T13:53:43;101341.63;;;19.76;100.00
60015;BME280;45867;52.480;6.056;2022-10-22T13:56:14;101330.75;;;19.23;100.00
60015;BME280;45867;52.480;6.056;2022-10-22T13:58:41;101346.94;;;19.58;100.00
60015;BME280;45867;52.480;6.056;2022-10-22T14:01:20;101349.75;;;19.53;100.00
60015;BME280;45867;52.480;6.056;2022-10-22T14:03:48;101350.00;;;19.74;100.00
60015;BME280;45867;52.480;6.056;2022-10-22T14:06:15;101347.41;;;19.60;100.00
60015;BME280;45867;52.480;6.056;2022-10-22T14:08:43;101360.09;;;19.11;100.00
60015;BME280;45867;52.480;6.056;2022-10-22T14:11:10;101352.81;;;18.49;100.00
60015;BME280;45867;52.480;6.056;2022-10-22T14:13:36;101363.03;;;18.02;100.00
60015;BME280;45867;52.480;6.056;2022-10-22T14:16:02;101364.50;;;18.08;100.00
60015;BME280;45867;52.480;6.056;2022-10-22T14:18:40;101360.75;;;18.09;100.00
60015;BME280;45867;52.480;6.056;2022-10-22T14:21:06;101348.19;;;18.18;100.00
60015;BME280;45867;52.480;6.056;2022-10-22T14:23:32;101367.50;;;18.29;100.00
60015;BME280;45867;52.480;6.056;2022-10-22T14:26:00;101358.38;;;18.53;100.00
60015;BME280;45867;52.480;6.056;2022-10-22T14:28:26;101368.72;;;18.46;100.00
60015;BME280;45867;52.480;6.056;2022-10-22T14:30:52;101355.66;;;18.08;100.00